• Join FlightAware (Why Join?)
  • Login
  • US Flag 
12:52AM EDT


 

Airport Tracker/Info


-or-


 

Live Flight TrackerFlight Track Log ✈ AAY871 ✈ 11-Apr-2014 ✈ KMLI - KPIE

Flight Track Log - Related Links

Times and Time Zones

All times are in EDT time to prevent confusion due to time zone crossing. See the AAY871 flight status page for this flight to view local times or setup timezone preferences in your user account.

Time Position Orientation Groundspeed Altitude Reporting Facility
EDT Latitude Longitude Course Direction KTS MPH feet Rate Location/Type
11:35AM 41.4050 -90.4967 161° South 210 242 3,700  Level Chicago Center
11:40AM 41.1667 -89.6376 112° Southeast  Level FlightAware Approximate
11:41AM 41.0835 -89.5440 161° South  Level FlightAware Approximate
11:41AM 41.0774 -90.0473 150° Southeast 408 470 17,100  Level FlightAware ADS-B (KPWK)
11:41AM 41.0054 -89.9920 150° Southeast 417 480 18,900 2,280 Climbing FlightAware ADS-B (KPWK)
11:42AM 40.9199 -89.9266 150° Southeast 433 498 20,700 1,980 Climbing FlightAware ADS-B (KPWK)
11:44AM 40.6753 -89.7413 150° Southeast 452 520 24,900 1,560 Climbing FlightAware ADS-B
11:45AM 40.6590 -89.7291 150° Southeast 448 516 25,200 900 Climbing FlightAware ADS-B
11:45AM 40.5815 -89.6708 150° Southeast 456 525 25,900 1,680 Climbing FlightAware ADS-B (KPWK)
11:47AM 40.4756 -89.5912 150° Southeast 461 531 28,000 1,560 Climbing FlightAware ADS-B (KPWK)
11:48AM 40.3666 -89.5098 150° Southeast 470 541 29,600 1,440 Climbing FlightAware ADS-B
11:48AM 40.2859 -89.4496 150° Southeast 472 543 30,700 1,440 Climbing FlightAware ADS-B
11:50AM 40.0337 -89.2626 151° Southeast 466 536 33,000 1,200 Climbing FlightAware ADS-B
11:52AM 39.8680 -89.1407 151° Southeast 460 529 35,000 780 Climbing FlightAware ADS-B
11:52AM 39.7655 -89.0657 151° Southeast 461 531 35,000  Level FlightAware ADS-B
11:53AM 39.6938 -89.0134 151° Southeast 457 526 35,000  Level FlightAware ADS-B
11:54AM 39.6052 -88.9489 151° Southeast 453 521 35,000  Level FlightAware ADS-B
11:55AM 39.5461 -88.9059 151° Southeast 447 514 35,000 240 Level FlightAware ADS-B
11:55AM 39.4823 -88.8597 151° Southeast 452 520 35,300 720 Climbing FlightAware ADS-B
11:56AM 39.3964 -88.7976 151° Southeast 455 524 36,100 900 Climbing FlightAware ADS-B
11:57AM 39.3243 -88.7457 151° Southeast 455 524 36,500 720 Climbing FlightAware ADS-B
11:57AM 39.2545 -88.6957 151° Southeast 457 526 37,000 420 Climbing FlightAware ADS-B
11:58AM 39.1954 -88.6531 151° Southeast 454 522 37,000  Level FlightAware ADS-B
11:58AM 39.1279 -88.6046 151° Southeast 453 521 37,000  Level FlightAware ADS-B
11:59AM 39.0693 -88.5625 151° Southeast 453 521 37,000  Level FlightAware ADS-B
11:59AM 39.0126 -88.5223 151° Southeast 453 521 37,000  Level FlightAware ADS-B
12:00PM 38.9402 -88.4709 151° Southeast 455 524 37,000 60 Level FlightAware ADS-B
12:00PM 38.8929 -88.4373 151° Southeast 458 527 37,100 540 Climbing FlightAware ADS-B
12:01PM 38.8077 -88.3768 151° Southeast 459 528 37,700 660 Climbing FlightAware ADS-B
12:02PM 38.7323 -88.3235 151° Southeast 462 532 38,000 480 Climbing FlightAware ADS-B
12:02PM 38.6793 -88.2861 151° Southeast 455 524 38,300 600 Climbing FlightAware ADS-B
12:03PM 38.5855 -88.2201 151° Southeast 453 521 38,800 360 Climbing FlightAware ADS-B
12:04PM 38.4744 -88.1416 151° Southeast 459 528 39,000 120 Climbing FlightAware ADS-B
12:05PM 38.4181 -88.1025 152° Southeast 458 527 39,000 60 Level FlightAware ADS-B
12:05PM 38.3643 -88.0653 151° Southeast 452 520 39,100  Climbing FlightAware ADS-B
12:06PM 38.2771 -88.0045 151° Southeast 448 516 39,000 -120 Descending FlightAware ADS-B
12:07PM 38.2148 -87.9609 151° Southeast 445 512 39,000  Level FlightAware ADS-B
12:07PM 38.1448 -87.9121 151° Southeast 446 513 39,000  Level FlightAware ADS-B
12:08PM 38.0381 -87.8383 151° Southeast 446 513 39,000  Level FlightAware ADS-B
12:09PM 37.9779 -87.7968 151° Southeast 449 517 39,000  Level FlightAware ADS-B
12:09PM 37.9099 -87.7500 152° Southeast 450 518 39,000  Level FlightAware ADS-B
12:10PM 37.8498 -87.7127 155° Southeast 449 517 39,000  Level FlightAware ADS-B
12:14PM 37.3507 -87.4089 154° Southeast 451 519 39,000  Level FlightAware ADS-B
12:15PM 37.2700 -87.3600 154° Southeast 452 520 39,000  Level FlightAware ADS-B
12:16PM 37.2031 -87.3201 155° Southeast 452 520 39,000 60 Level FlightAware ADS-B
12:16PM 37.1036 -87.2815 164° South 441 507 39,100  Climbing FlightAware ADS-B
12:17PM 37.0378 -87.2594 164° South 444 511 39,000 -60 Descending Memphis Center
12:22PM 36.4055 -87.0144 155° Southeast 441 507 39,000  Level FlightAware ADS-B
12:23PM 36.3185 -86.9656 156° South 441 507 39,000  Level FlightAware ADS-B (KMDQ)
12:24PM 36.2350 -86.9189 156° South 444 511 39,000  Level FlightAware ADS-B (KMDQ)
12:25PM 36.1813 -86.8888 156° South 447 514 39,000 60 Level FlightAware ADS-B (KMDQ)
12:25PM 36.1040 -86.8454 156° South 449 517 39,100 60 Climbing FlightAware ADS-B (KMDQ)
12:26PM 36.0108 -86.7932 156° South 449 517 39,100  Level FlightAware ADS-B (KMDQ)
12:27PM 35.9354 -86.7511 156° South 449 517 39,100  Level FlightAware ADS-B (KMDQ)
12:27PM 35.8527 -86.7053 156° South 448 516 39,100  Level FlightAware ADS-B (KMDQ)
12:28PM 35.7772 -86.6634 156° South 446 513 39,100 -120 Level FlightAware ADS-B (KMDQ)
12:29PM 35.7073 -86.6247 156° South 445 512 39,000 -120 Descending FlightAware ADS-B (KMDQ)
12:29PM 35.6260 -86.5799 156° South 447 514 39,000  Level FlightAware ADS-B (KMDQ)
12:30PM 35.5495 -86.5378 156° South 450 518 39,000  Level FlightAware ADS-B (KMDQ)
12:31PM 35.4744 -86.4965 156° South 452 520 39,000 60 Level FlightAware ADS-B (KMDQ)
12:31PM 35.3999 -86.4555 156° South 453 521 39,100 60 Climbing FlightAware ADS-B (KMDQ)
12:32PM 35.3248 -86.4145 156° South 452 520 39,100  Level FlightAware ADS-B (KMDQ)
12:33PM 35.2489 -86.3730 156° South 451 519 39,100 -120 Level FlightAware ADS-B (KMDQ)
12:33PM 35.1679 -86.3288 156° South 450 518 39,000 -120 Descending FlightAware ADS-B (KMDQ)
12:34PM 35.0580 -86.2691 156° South 451 519 39,000  Level FlightAware ADS-B (KMDQ)
12:35PM 34.9844 -86.2292 156° South 452 520 39,000 60 Level FlightAware ADS-B (KMDQ)
12:36PM 34.9012 -86.1840 156° South 452 520 39,100 60 Climbing FlightAware ADS-B (KMDQ)
12:36PM 34.8245 -86.1424 156° South 450 518 39,100 -120 Level FlightAware ADS-B (KMDQ)
12:37PM 34.7482 -86.1013 156° South 449 517 39,000 -60 Descending FlightAware ADS-B (KMDQ)
12:38PM 34.6014 -86.0226 156° South 447 514 39,000  Level FlightAware ADS-B (KMDQ)
12:39PM 34.5247 -85.9814 156° South 446 513 39,000  Level FlightAware ADS-B (KMDQ)
12:40PM 34.4795 -85.9572 156° South 446 513 39,000  Level FlightAware ADS-B (KMDQ)
12:40PM 34.3763 -85.9020 156° South 447 514 39,000  Level FlightAware ADS-B (KMDQ)
12:41PM 34.3085 -85.8659 156° South 447 514 39,000  Level FlightAware ADS-B (KMDQ)
12:42PM 34.1802 -85.7977 156° South 450 518 39,000  Level FlightAware ADS-B (KMDQ)
12:43PM 34.1064 -85.7587 156° South 449 517 39,100 60 Climbing FlightAware ADS-B (KMDQ)
12:43PM 34.0278 -85.7171 156° South 447 514 39,100 -60 Level FlightAware ADS-B (KMDQ)
12:45PM 33.9030 -85.6512 156° South 443 510 39,000 -60 Descending FlightAware ADS-B (KMDQ)
12:45PM 33.8197 -85.6092 156° South 442 509 39,000  Level Atlanta Center
12:46PM 33.7056 -85.5519 157° South 447 514 39,000  Level Atlanta Center
12:47PM 33.5936 -85.4903 155° Southeast 447 514 39,000  Level Atlanta Center
12:48PM 33.4794 -85.4336 158° South 447 514 39,000  Level Atlanta Center
12:49PM 33.3778 -85.3797 156° South 442 509 39,000  Level Atlanta Center
12:50PM 33.2636 -85.3208 157° South 448 516 39,000  Level Atlanta Center
12:51PM 33.1517 -85.2619 156° South 448 516 39,000  Level Atlanta Center
12:52PM 33.0372 -85.2011 156° South 448 516 39,000  Level Atlanta Center
12:53PM 32.9189 -85.1572 163° South 448 516 39,000  Level Atlanta Center
12:54PM 32.8042 -85.1261 167° South 433 498 39,000  Level Atlanta Center
12:55PM 32.6794 -85.0778 162° South 433 498 39,000  Level Atlanta Center
12:56PM 32.5567 -85.0369 164° South 443 510 39,000  Level Atlanta Center
12:57PM 32.4400 -84.9961 164° South 438 504 39,000  Level Atlanta Center
12:58PM 32.3256 -84.9581 164° South 438 504 39,000  Level Atlanta Center
12:59PM 32.2089 -84.9225 166° South 438 504 39,000  Level Atlanta Center
01:02PM 31.9469 -84.8342 164° South 437 503 39,000  Level Jacksonville Center
01:03PM 31.8350 -84.7975 164° South 437 503 39,000  Level Jacksonville Center
01:04PM 31.7206 -84.7586 164° South 431 496 39,000  Level Jacksonville Center
01:05PM 31.6064 -84.7197 164° South 431 496 39,000  Level Jacksonville Center
01:10PM 30.9073 -84.4887 164° South 442 509 39,000  Level FlightAware ADS-B (KTLH)
01:12PM 30.7452 -84.4357 164° South 443 510 39,000  Level FlightAware ADS-B (KTLH)
01:12PM 30.6674 -84.4103 164° South 442 509 39,100  Climbing FlightAware ADS-B (KTLH)
01:13PM 30.5877 -84.3844 164° South 444 511 39,000 -120 Descending FlightAware ADS-B (KTLH)
01:14PM 30.5353 -84.3612 150° Southeast 461 531 39,000  Level FlightAware ADS-B (KTLH)
01:14PM 30.4554 -84.3079 150° Southeast 462 532 39,000  Level FlightAware ADS-B (KTLH)
01:15PM 30.3901 -84.2650 151° Southeast 462 532 39,000  Level FlightAware ADS-B (KTLH)
01:16PM 30.3124 -84.2145 151° Southeast 462 532 39,000  Level FlightAware ADS-B (KTLH)
01:16PM 30.2503 -84.1739 150° Southeast 462 532 39,000  Level FlightAware ADS-B (KTLH)
01:17PM 30.1957 -84.1382 150° Southeast 464 534 39,000  Level FlightAware ADS-B (KTLH)
01:17PM 30.1245 -84.0918 151° Southeast 464 534 39,000  Level FlightAware ADS-B (KTLH)
01:18PM 30.0653 -84.0533 151° Southeast 464 534 39,000 60 Level FlightAware ADS-B (KTLH)
01:18PM 29.9887 -84.0038 151° Southeast 464 534 39,100  Climbing FlightAware ADS-B (KTLH)
01:20PM 29.8761 -83.9344 151° Southeast 456 525 39,000 -300 Descending Jacksonville Center
01:21PM 29.7658 -83.8617 150° Southeast 456 525 38,500 -1,080 Descending Jacksonville Center
01:22PM 29.6497 -83.7864 151° Southeast 461 531 36,900 -2,340 Descending Jacksonville Center
01:23PM 29.5372 -83.7161 151° Southeast 461 531 33,900 -2,700 Descending Jacksonville Center
01:24PM 29.4272 -83.6436 150° Southeast 461 531 31,500 -2,580 Descending Jacksonville Center
01:25PM 29.3106 -83.5689 151° Southeast 449 517 28,800 -2,400 Descending Jacksonville Center
01:26PM 29.2067 -83.5039 151° Southeast 437 503 26,700 -1,980 Descending Jacksonville Center
01:27PM 29.1067 -83.4369 150° Southeast 431 496 24,900 -1,740 Descending Jacksonville Center
01:28PM 29.0067 -83.3722 150° Southeast 419 482 23,300 -1,680 Descending Jacksonville Center
01:29PM 28.9131 -83.3147 152° Southeast 406 467 21,600 -1,740 Descending Jacksonville Center
01:30PM 28.8194 -83.2553 151° Southeast 396 456 19,900 -1,620 Descending Jacksonville Center
01:31PM 28.7275 -83.1981 151° Southeast 384 442 18,400 -1,560 Descending Jacksonville Center
01:33PM 28.5500 -83.0833 150° Southeast 350 403 15,400 -1,500 Descending Tampa TRACON
01:34PM 28.4667 -83.0333 152° Southeast 344 396 14,000 -1,200 Descending Tampa TRACON
01:35PM 28.3833 -82.9833 152° Southeast 337 388 13,000 -1,020 Descending Tampa TRACON
01:36PM 28.3000 -82.9333 152° Southeast 327 376 12,000 -1,020 Descending Tampa TRACON
01:37PM 28.2333 -82.8833 147° Southeast 317 365 11,000 -1,200 Descending Tampa TRACON
01:38PM 28.1500 -82.8500 161° South 281 323 9,500 -1,800 Descending Tampa TRACON
01:39PM 28.0833 -82.8333 168° South 276 318 7,500 -2,160 Descending Tampa TRACON
01:40PM 28.0000 -82.8000 161° South 256 295 5,500 -1,800 Descending Tampa TRACON
01:41PM 27.9500 -82.7833 164° South 235 270 3,900 -1,140 Descending Tampa TRACON
01:42PM 27.8833 -82.7667 168° South 209 241 3,300 -780 Descending Tampa TRACON
01:43PM 27.8333 -82.7500 164° South 173 199 2,400 -900 Descending Tampa TRACON
01:44PM 27.8333 -82.7000 90° East 157 181 1,500 -900 Descending Tampa TRACON
01:45PM 27.8667 -82.6833 24° Northeast 139 160 700 -840 Descending Tampa TRACON